Time;durP1;ratioP1;P1;durP2;ratioP2;P2;SDS_P1;SDS_P2;PMS_P1;PMS_P2;Temp;Humidity;BMP_temperature;BMP_pressure;BME280_temperature;BME280_humidity;BME280_pressure;Samples;Min_cycle;Max_cycle;Signal;HPM_P1;HPM_P2
2023/09/25 00:02:15;;;;;;;;;;;15.40;99.90;;;;;;8402777;28;20367;-70
2023/09/25 00:06:17;;;;;;;;;;;15.30;99.90;;;;;;8412201;28;19928;-70
2023/09/25 00:10:18;;;;;;;;;;;15.30;99.90;;;;;;8387226;28;19936;-70
2023/09/25 00:14:20;;;;;;;;;;;15.30;99.90;;;;;;8425338;28;19932;-70
2023/09/25 00:23:34;;;;;;;;;;;15.30;99.90;;;;;;8413217;28;19924;-69
2023/09/25 00:42:49;;;;;;;;;;;15.10;99.90;;;;;;8343319;28;19925;-69
2023/09/25 00:46:51;;;;;;;;;;;15.10;99.90;;;;;;8357958;28;19940;-70
2023/09/25 00:50:53;;;;;;;;;;;15.10;99.90;;;;;;8350687;28;20011;-70
2023/09/25 00:54:55;;;;;;;;;;;15.10;99.90;;;;;;8342408;28;19929;-70
2023/09/25 00:58:57;;;;;;;;;;;15.10;99.90;;;;;;8340801;28;19929;-70
2023/09/25 01:02:59;;;;;;;;;;;15.10;99.90;;;;;;8345195;28;19936;-70
2023/09/25 01:07:01;;;;;;;;;;;15.10;99.90;;;;;;8343241;28;20384;-69
2023/09/25 01:11:03;;;;;;;;;;;15.00;99.90;;;;;;8343311;28;19925;-70
2023/09/25 01:15:05;;;;;;;;;;;15.00;99.90;;;;;;8340570;28;19948;-70
2023/09/25 01:19:07;;;;;;;;;;;14.90;99.90;;;;;;8349491;28;20257;-70
2023/09/25 01:23:08;;;;;;;;;;;14.90;99.90;;;;;;8333859;28;19940;-70
2023/09/25 01:27:10;;;;;;;;;;;14.80;99.90;;;;;;8359292;28;19929;-70
2023/09/25 01:31:12;;;;;;;;;;;14.80;99.90;;;;;;8337479;28;19974;-69
2023/09/25 01:35:18;;;;;;;;;;;14.80;99.90;;;;;;8341987;28;19929;-70
2023/09/25 01:39:20;;;;;;;;;;;14.70;99.90;;;;;;8357043;28;19928;-70
2023/09/25 01:43:22;;;;;;;;;;;14.70;99.90;;;;;;8402169;28;19924;-69
2023/09/25 01:47:24;;;;;;;;;;;14.70;99.90;;;;;;8412174;28;19924;-70
2023/09/25 01:51:26;;;;;;;;;;;14.60;99.90;;;;;;8410719;28;19928;-70
2023/09/25 01:55:29;;;;;;;;;;;14.60;99.90;;;;;;8421517;28;19976;-70
2023/09/25 01:59:30;;;;;;;;;;;14.50;99.90;;;;;;8391296;28;19928;-70
2023/09/25 02:03:32;;;;;;;;;;;14.50;99.90;;;;;;8417659;28;19932;-70
2023/09/25 02:07:34;;;;;;;;;;;14.50;99.90;;;;;;8414300;28;19928;-70
2023/09/25 02:11:35;;;;;;;;;;;14.50;99.90;;;;;;8388450;28;19930;-70
2023/09/25 02:25:43;;;;;;;;;;;14.50;99.90;;;;;;8407823;28;20388;-70
2023/09/25 02:29:45;;;;;;;;;;;14.50;99.90;;;;;;8394544;28;20291;-70
2023/09/25 02:33:47;;;;;;;;;;;14.50;99.90;;;;;;8408914;28;19924;-70
2023/09/25 02:37:48;;;;;;;;;;;14.40;99.90;;;;;;8415113;28;19924;-69
2023/09/25 02:41:50;;;;;;;;;;;14.40;99.90;;;;;;8410182;28;19928;-69
2023/09/25 02:45:52;;;;;;;;;;;14.40;99.90;;;;;;8418783;28;20311;-69
2023/09/25 02:49:54;;;;;;;;;;;14.40;99.90;;;;;;8418448;28;19931;-69
2023/09/25 02:53:55;;;;;;;;;;;14.40;99.90;;;;;;8396935;28;19923;-70
2023/09/25 02:57:57;;;;;;;;;;;14.30;99.90;;;;;;8398389;28;19935;-70
2023/09/25 03:01:59;;;;;;;;;;;14.30;99.90;;;;;;8418520;28;19925;-70
2023/09/25 03:06:00;;;;;;;;;;;14.30;99.90;;;;;;8421401;28;19933;-69
2023/09/25 03:20:36;;;;;;;;;;;14.20;99.90;;;;;;8422964;28;19927;-69
2023/09/25 03:24:38;;;;;;;;;;;14.10;99.90;;;;;;8422343;28;19924;-70
2023/09/25 03:28:40;;;;;;;;;;;14.10;99.90;;;;;;8416229;28;20363;-70
2023/09/25 03:32:42;;;;;;;;;;;14.10;99.90;;;;;;8410732;28;20383;-70
2023/09/25 03:36:44;;;;;;;;;;;14.00;99.90;;;;;;8421441;28;19924;-69
2023/09/25 03:40:46;;;;;;;;;;;14.00;99.90;;;;;;8426221;28;19928;-70
2023/09/25 03:44:48;;;;;;;;;;;14.00;99.90;;;;;;8391379;28;19951;-70
2023/09/25 03:48:49;;;;;;;;;;;14.00;99.90;;;;;;8416855;28;20046;-69
2023/09/25 03:52:51;;;;;;;;;;;14.00;99.90;;;;;;8417444;28;19935;-70
2023/09/25 03:56:53;;;;;;;;;;;14.00;99.90;;;;;;8420370;28;19924;-70
2023/09/25 04:00:55;;;;;;;;;;;14.00;99.90;;;;;;8426575;28;19932;-69
2023/09/25 04:04:56;;;;;;;;;;;14.00;99.90;;;;;;8426268;28;19924;-70
2023/09/25 04:08:58;;;;;;;;;;;14.10;99.90;;;;;;8424369;28;19932;-70
2023/09/25 04:13:00;;;;;;;;;;;14.00;99.90;;;;;;8425840;28;19974;-70
2023/09/25 04:17:02;;;;;;;;;;;14.10;99.90;;;;;;8421988;28;20707;-71
2023/09/25 04:21:06;;;;;;;;;;;14.10;99.90;;;;;;8429866;28;19971;-70
2023/09/25 04:25:09;;;;;;;;;;;14.10;99.90;;;;;;8411716;28;19942;-70
2023/09/25 04:29:17;;;;;;;;;;;14.10;99.90;;;;;;8407407;28;19970;-70
2023/09/25 04:33:19;;;;;;;;;;;14.10;99.90;;;;;;8428923;28;19928;-71
2023/09/25 04:37:21;;;;;;;;;;;14.10;99.90;;;;;;8429157;28;19930;-70
2023/09/25 04:41:22;;;;;;;;;;;14.10;99.90;;;;;;8426130;28;20025;-70
2023/09/25 04:45:24;;;;;;;;;;;14.10;99.90;;;;;;8438138;28;19927;-71
2023/09/25 04:49:26;;;;;;;;;;;14.10;99.90;;;;;;8423969;28;20375;-70
2023/09/25 04:53:27;;;;;;;;;;;14.10;99.90;;;;;;8402833;28;19960;-70
2023/09/25 04:57:29;;;;;;;;;;;14.00;99.90;;;;;;8398633;28;20244;-70
2023/09/25 05:01:31;;;;;;;;;;;14.00;99.90;;;;;;8394583;28;19938;-71
2023/09/25 05:05:33;;;;;;;;;;;14.00;99.90;;;;;;8379241;28;20039;-70
2023/09/25 05:09:34;;;;;;;;;;;14.00;99.90;;;;;;8394448;28;19994;-70
2023/09/25 05:13:36;;;;;;;;;;;14.00;99.90;;;;;;8374326;28;20375;-70
2023/09/25 05:17:38;;;;;;;;;;;13.90;99.90;;;;;;8394617;28;19971;-70
2023/09/25 05:21:40;;;;;;;;;;;13.90;99.90;;;;;;8375755;28;19931;-70
2023/09/25 05:25:42;;;;;;;;;;;13.90;99.90;;;;;;8395186;28;22560;-69
2023/09/25 05:29:44;;;;;;;;;;;13.90;99.90;;;;;;8392714;28;19976;-69
2023/09/25 05:33:46;;;;;;;;;;;13.90;99.90;;;;;;8395148;28;20366;-70
2023/09/25 05:37:48;;;;;;;;;;;13.80;99.90;;;;;;8402443;28;19928;-69
2023/09/25 05:52:09;;;;;;;;;;;13.80;99.90;;;;;;8396059;28;19919;-70
2023/09/25 05:56:11;;;;;;;;;;;13.80;99.90;;;;;;8376384;28;19974;-70
2023/09/25 06:00:18;;;;;;;;;;;13.80;99.90;;;;;;8376916;28;19946;-70
2023/09/25 06:04:20;;;;;;;;;;;13.80;99.90;;;;;;8376878;28;19942;-70
2023/09/25 06:08:21;;;;;;;;;;;13.80;99.90;;;;;;8378354;28;19932;-69
2023/09/25 06:12:23;;;;;;;;;;;13.80;99.90;;;;;;8395387;28;19978;-70
2023/09/25 06:16:26;;;;;;;;;;;13.80;99.90;;;;;;8395930;28;20302;-69
2023/09/25 06:20:28;;;;;;;;;;;13.80;99.90;;;;;;8391986;28;20410;-69
2023/09/25 06:24:32;;;;;;;;;;;13.80;99.90;;;;;;8378767;28;19924;-70
2023/09/25 06:28:33;;;;;;;;;;;13.90;99.90;;;;;;8375286;28;20058;-69
2023/09/25 06:32:35;;;;;;;;;;;13.90;99.90;;;;;;8395329;28;19925;-69
2023/09/25 06:36:37;;;;;;;;;;;13.90;99.90;;;;;;8386553;28;20190;-69
2023/09/25 06:40:45;;;;;;;;;;;13.90;99.90;;;;;;8394775;28;19923;-70
2023/09/25 06:44:47;;;;;;;;;;;13.90;99.90;;;;;;8396165;28;19929;-70
2023/09/25 06:48:50;;;;;;;;;;;14.00;99.90;;;;;;8391906;28;19937;-69
2023/09/25 06:52:52;;;;;;;;;;;14.00;99.90;;;;;;8394436;28;19924;-70
2023/09/25 06:56:54;;;;;;;;;;;14.00;99.90;;;;;;8392367;28;19928;-70
2023/09/25 07:00:55;;;;;;;;;;;14.10;99.90;;;;;;8393108;28;19932;-70
2023/09/25 07:04:59;;;;;;;;;;;14.10;99.90;;;;;;8388472;28;19932;-69
2023/09/25 07:09:02;;;;;;;;;;;14.20;99.90;;;;;;8388101;28;19928;-70
2023/09/25 07:13:04;;;;;;;;;;;14.20;99.90;;;;;;8388682;28;19954;-70
2023/09/25 07:17:06;;;;;;;;;;;14.20;99.90;;;;;;8389833;28;19947;-70
2023/09/25 07:21:07;;;;;;;;;;;14.20;99.90;;;;;;8398997;28;20336;-69
2023/09/25 07:25:09;;;;;;;;;;;14.30;99.90;;;;;;8394300;28;19929;-71
2023/09/25 07:29:11;;;;;;;;;;;14.30;99.90;;;;;;8395900;28;20267;-70
2023/09/25 07:33:28;;;;;;;;;;;14.40;99.90;;;;;;8400798;28;19925;-69
2023/09/25 07:37:29;;;;;;;;;;;14.50;99.90;;;;;;8395198;28;19982;-70
2023/09/25 07:41:31;;;;;;;;;;;14.50;99.90;;;;;;8392841;28;19964;-69
2023/09/25 07:45:33;;;;;;;;;;;14.60;99.90;;;;;;8396966;28;19924;-70
2023/09/25 07:49:40;;;;;;;;;;;14.70;99.90;;;;;;8399348;28;19928;-70
2023/09/25 07:53:44;;;;;;;;;;;14.70;99.90;;;;;;8397935;28;20379;-70
2023/09/25 07:57:47;;;;;;;;;;;14.90;99.90;;;;;;8391655;28;19928;-70
2023/09/25 08:01:50;;;;;;;;;;;15.00;99.90;;;;;;8382431;28;19929;-70
2023/09/25 08:05:53;;;;;;;;;;;15.00;99.90;;;;;;8378238;28;19938;-70
2023/09/25 08:09:56;;;;;;;;;;;15.20;99.90;;;;;;8392128;28;19981;-70
2023/09/25 08:13:57;;;;;;;;;;;15.30;99.90;;;;;;8374723;28;19924;-70
2023/09/25 08:17:59;;;;;;;;;;;15.40;99.90;;;;;;8393408;28;19932;-69
2023/09/25 08:22:01;;;;;;;;;;;15.50;99.90;;;;;;8398106;28;20027;-70
2023/09/25 08:26:05;;;;;;;;;;;15.60;99.90;;;;;;8391491;28;20312;-70
2023/09/25 08:30:08;;;;;;;;;;;15.70;99.90;;;;;;8372347;28;19934;-70
2023/09/25 08:34:10;;;;;;;;;;;15.70;99.90;;;;;;8396723;28;19927;-71
2023/09/25 08:38:12;;;;;;;;;;;15.80;99.90;;;;;;8401580;28;20002;-71
2023/09/25 08:42:13;;;;;;;;;;;15.80;99.90;;;;;;8391589;28;19977;-71
2023/09/25 08:46:15;;;;;;;;;;;15.80;99.90;;;;;;8396416;28;19929;-70
2023/09/25 08:50:17;;;;;;;;;;;15.90;99.90;;;;;;8394144;28;20394;-70
2023/09/25 08:54:19;;;;;;;;;;;16.00;99.90;;;;;;8393476;28;19929;-70
2023/09/25 08:58:22;;;;;;;;;;;16.00;99.90;;;;;;8390019;28;20023;-70
2023/09/25 09:02:23;;;;;;;;;;;16.10;99.90;;;;;;8392996;28;19932;-71
2023/09/25 09:06:25;;;;;;;;;;;16.30;99.90;;;;;;8395273;28;19938;-70
2023/09/25 09:10:31;;;;;;;;;;;16.40;99.90;;;;;;8390620;28;19936;-71
2023/09/25 09:14:40;;;;;;;;;;;16.50;99.90;;;;;;8392260;28;20326;-70
2023/09/25 09:18:41;;;;;;;;;;;16.60;99.90;;;;;;8391747;28;19929;-71
2023/09/25 09:22:51;;;;;;;;;;;16.70;99.90;;;;;;8393853;28;20280;-71
2023/09/25 09:26:53;;;;;;;;;;;16.80;99.90;;;;;;8391243;28;19928;-71
2023/09/25 09:30:56;;;;;;;;;;;16.90;99.90;;;;;;8390368;28;19952;-69
2023/09/25 09:34:59;;;;;;;;;;;17.00;99.90;;;;;;8392379;28;20345;-70
2023/09/25 09:39:03;;;;;;;;;;;17.00;99.90;;;;;;8397698;28;19947;-70
2023/09/25 09:43:06;;;;;;;;;;;17.00;99.90;;;;;;8405997;28;19931;-71
2023/09/25 09:47:08;;;;;;;;;;;17.10;99.90;;;;;;8378811;28;20293;-70
2023/09/25 09:51:11;;;;;;;;;;;17.20;99.90;;;;;;8383602;28;19935;-70
2023/09/25 09:55:14;;;;;;;;;;;17.30;99.90;;;;;;8389559;28;20268;-71
2023/09/25 09:59:16;;;;;;;;;;;17.40;99.90;;;;;;8388993;28;19924;-70
2023/09/25 10:03:18;;;;;;;;;;;17.40;99.90;;;;;;8375676;28;19929;-70
2023/09/25 10:07:20;;;;;;;;;;;17.50;99.90;;;;;;8390088;28;20264;-70
2023/09/25 10:11:23;;;;;;;;;;;17.50;99.90;;;;;;8370164;28;19932;-71
2023/09/25 10:15:25;;;;;;;;;;;17.50;99.90;;;;;;8388501;28;20214;-70
2023/09/25 10:19:47;;;;;;;;;;;17.70;99.90;;;;;;8388191;28;19974;-70
2023/09/25 10:23:51;;;;;;;;;;;17.70;99.90;;;;;;8400610;28;20406;-70
2023/09/25 10:27:53;;;;;;;;;;;17.70;99.90;;;;;;8390988;28;19928;-70
2023/09/25 10:31:55;;;;;;;;;;;17.80;99.90;;;;;;8392337;28;19928;-70
2023/09/25 10:36:00;;;;;;;;;;;17.90;99.90;;;;;;8389454;28;19924;-69
2023/09/25 10:40:03;;;;;;;;;;;18.00;99.90;;;;;;8390251;28;20291;-70
2023/09/25 10:44:05;;;;;;;;;;;18.20;99.90;;;;;;8369507;28;19928;-70
2023/09/25 10:48:06;;;;;;;;;;;18.30;99.90;;;;;;8393003;28;19986;-70
2023/09/25 10:52:08;;;;;;;;;;;18.50;99.90;;;;;;8389339;28;19932;-70
2023/09/25 10:56:11;;;;;;;;;;;18.60;99.90;;;;;;8374407;28;19935;-71
2023/09/25 11:00:15;;;;;;;;;;;18.70;99.90;;;;;;8384023;28;19967;-70
2023/09/25 11:04:16;;;;;;;;;;;18.80;99.90;;;;;;8379952;28;19924;-71
2023/09/25 11:08:19;;;;;;;;;;;18.90;99.90;;;;;;8389891;28;19932;-71
2023/09/25 11:12:20;;;;;;;;;;;19.00;99.90;;;;;;8391193;28;19924;-72
2023/09/25 11:16:24;;;;;;;;;;;19.10;99.90;;;;;;8396371;28;19927;-71
2023/09/25 11:20:33;;;;;;;;;;;19.10;99.90;;;;;;8391581;28;19981;-70
2023/09/25 11:24:34;;;;;;;;;;;19.30;99.90;;;;;;8380663;28;19924;-72
2023/09/25 11:28:36;;;;;;;;;;;19.30;99.90;;;;;;8378518;28;19932;-72
2023/09/25 11:32:39;;;;;;;;;;;19.30;99.90;;;;;;8394903;28;20364;-71
2023/09/25 11:36:44;;;;;;;;;;;19.30;99.90;;;;;;8392264;28;19936;-71
2023/09/25 11:40:46;;;;;;;;;;;19.40;99.90;;;;;;8390700;28;19975;-71
2023/09/25 11:44:47;;;;;;;;;;;19.50;99.90;;;;;;8390801;28;19932;-72
2023/09/25 11:48:49;;;;;;;;;;;19.60;99.90;;;;;;8398042;28;20410;-71
2023/09/25 11:52:51;;;;;;;;;;;19.80;99.90;;;;;;8391552;28;19932;-71
2023/09/25 11:56:53;;;;;;;;;;;19.80;99.90;;;;;;8392540;28;19928;-71
2023/09/25 12:00:54;;;;;;;;;;;19.80;99.90;;;;;;8394059;28;19954;-71
2023/09/25 12:04:56;;;;;;;;;;;19.80;99.90;;;;;;8380733;28;19975;-71
2023/09/25 12:08:58;;;;;;;;;;;19.90;99.90;;;;;;8397603;28;19924;-71
2023/09/25 12:13:00;;;;;;;;;;;20.00;99.90;;;;;;8393731;28;19954;-71
2023/09/25 12:17:02;;;;;;;;;;;20.10;99.90;;;;;;8392788;28;19932;-71
2023/09/25 12:21:03;;;;;;;;;;;20.10;99.90;;;;;;8392164;28;19924;-72
2023/09/25 12:25:09;;;;;;;;;;;20.10;99.90;;;;;;8408605;28;19932;-71
2023/09/25 12:29:10;;;;;;;;;;;20.20;99.90;;;;;;8383444;28;19961;-71
2023/09/25 12:33:12;;;;;;;;;;;20.20;99.90;;;;;;8393881;28;19925;-71
2023/09/25 12:37:14;;;;;;;;;;;20.20;99.90;;;;;;8397242;28;20433;-72
2023/09/25 12:41:15;;;;;;;;;;;20.30;99.90;;;;;;8397056;28;20236;-71
2023/09/25 12:45:17;;;;;;;;;;;20.30;99.90;;;;;;8395693;28;19985;-72
2023/09/25 12:49:19;;;;;;;;;;;20.30;99.90;;;;;;8395829;28;19931;-71
2023/09/25 12:53:21;;;;;;;;;;;20.30;99.90;;;;;;8395000;28;19923;-71
2023/09/25 12:57:24;;;;;;;;;;;20.40;99.90;;;;;;8389165;28;19932;-71
2023/09/25 13:01:26;;;;;;;;;;;20.40;99.90;;;;;;8392340;28;19939;-70
2023/09/25 13:05:29;;;;;;;;;;;20.50;99.90;;;;;;8390807;28;19924;-72
2023/09/25 13:09:31;;;;;;;;;;;20.60;99.90;;;;;;8389837;28;19932;-71
2023/09/25 13:13:32;;;;;;;;;;;20.60;99.90;;;;;;8368898;28;19932;-71
2023/09/25 13:17:35;;;;;;;;;;;20.70;99.90;;;;;;8396298;28;19928;-72
2023/09/25 13:21:37;;;;;;;;;;;20.80;99.90;;;;;;8395489;28;19930;-71
2023/09/25 13:25:39;;;;;;;;;;;20.80;99.90;;;;;;8392835;28;19955;-72
2023/09/25 13:29:43;;;;;;;;;;;21.00;99.90;;;;;;8392094;28;19932;-72
2023/09/25 13:33:44;;;;;;;;;;;21.00;99.90;;;;;;8396970;28;19928;-72
2023/09/25 13:37:46;;;;;;;;;;;21.10;99.90;;;;;;8370370;28;19929;-72
2023/09/25 13:41:48;;;;;;;;;;;21.10;99.90;;;;;;8390790;28;19925;-72
2023/09/25 13:45:49;;;;;;;;;;;21.20;99.90;;;;;;8393314;28;20368;-72
2023/09/25 13:49:51;;;;;;;;;;;21.30;99.90;;;;;;8372244;28;19939;-71
2023/09/25 13:53:53;;;;;;;;;;;21.50;99.90;;;;;;8403801;28;19971;-72
2023/09/25 13:57:55;;;;;;;;;;;21.60;99.90;;;;;;8393579;28;19953;-71
2023/09/25 14:01:57;;;;;;;;;;;21.70;99.90;;;;;;8389298;28;19924;-71
2023/09/25 14:06:03;;;;;;;;;;;21.80;99.90;;;;;;8395656;28;19928;-72
2023/09/25 14:10:05;;;;;;;;;;;21.90;99.90;;;;;;8391169;28;19928;-72
2023/09/25 14:14:08;;;;;;;;;;;22.10;99.90;;;;;;8395285;28;19928;-73
2023/09/25 14:18:10;;;;;;;;;;;22.30;99.90;;;;;;8396435;28;19931;-72
2023/09/25 14:22:11;;;;;;;;;;;22.40;99.90;;;;;;8400109;28;20019;-72
2023/09/25 14:26:13;;;;;;;;;;;22.40;99.90;;;;;;8394078;28;20401;-73
2023/09/25 14:30:15;;;;;;;;;;;22.50;99.90;;;;;;8382977;28;20199;-72
2023/09/25 14:34:17;;;;;;;;;;;22.50;99.90;;;;;;8401418;28;19931;-72
2023/09/25 14:38:19;;;;;;;;;;;22.30;99.90;;;;;;8400472;28;20544;-73
2023/09/25 14:42:20;;;;;;;;;;;22.10;99.90;;;;;;8395507;28;19924;-72
2023/09/25 14:46:22;;;;;;;;;;;21.90;99.90;;;;;;8394421;28;19924;-73
2023/09/25 14:50:24;;;;;;;;;;;21.80;99.90;;;;;;8385441;28;19925;-72
2023/09/25 14:54:25;;;;;;;;;;;21.80;99.90;;;;;;8391180;28;19933;-72
2023/09/25 14:58:27;;;;;;;;;;;21.70;99.90;;;;;;8389838;28;20371;-72
2023/09/25 15:02:28;;;;;;;;;;;21.70;99.90;;;;;;8393249;28;19943;-72
2023/09/25 15:06:30;;;;;;;;;;;21.60;99.90;;;;;;8379922;28;19989;-72
2023/09/25 15:10:32;;;;;;;;;;;21.60;99.90;;;;;;8391386;28;20064;-72
2023/09/25 15:14:34;;;;;;;;;;;21.50;99.90;;;;;;8393202;28;19928;-72
2023/09/25 15:18:35;;;;;;;;;;;21.60;99.90;;;;;;8380023;28;20379;-73
2023/09/25 15:22:37;;;;;;;;;;;21.50;99.90;;;;;;8395892;28;19955;-72
2023/09/25 15:26:39;;;;;;;;;;;21.50;99.90;;;;;;8395484;28;19925;-72
2023/09/25 15:30:40;;;;;;;;;;;21.40;99.90;;;;;;8391429;28;20395;-72
2023/09/25 15:34:42;;;;;;;;;;;21.40;99.90;;;;;;8389849;28;20296;-72
2023/09/25 15:38:44;;;;;;;;;;;21.40;99.90;;;;;;8391576;28;19970;-72
2023/09/25 15:42:46;;;;;;;;;;;21.50;99.90;;;;;;8388725;28;19924;-72
2023/09/25 15:46:50;;;;;;;;;;;21.50;99.90;;;;;;8391587;28;20341;-72
2023/09/25 15:50:52;;;;;;;;;;;21.70;99.90;;;;;;8396269;28;19931;-72
2023/09/25 15:54:53;;;;;;;;;;;21.60;99.90;;;;;;8384003;28;19982;-72
2023/09/25 15:58:55;;;;;;;;;;;21.50;99.90;;;;;;8396969;28;19928;-72
2023/09/25 16:02:57;;;;;;;;;;;21.50;99.90;;;;;;8377496;28;19929;-73
2023/09/25 16:06:58;;;;;;;;;;;21.40;99.90;;;;;;8399814;28;20376;-72
2023/09/25 16:11:00;;;;;;;;;;;21.40;99.90;;;;;;8398726;28;20446;-72
2023/09/25 16:15:03;;;;;;;;;;;21.40;99.90;;;;;;8399351;28;20291;-72
2023/09/25 16:19:05;;;;;;;;;;;21.30;99.90;;;;;;8396268;28;19956;-72
2023/09/25 16:23:06;;;;;;;;;;;21.30;99.90;;;;;;8385643;28;20014;-72
2023/09/25 16:27:08;;;;;;;;;;;21.20;99.90;;;;;;8397080;28;19950;-72
2023/09/25 16:31:10;;;;;;;;;;;21.10;99.90;;;;;;8390276;28;19932;-72
2023/09/25 16:35:14;;;;;;;;;;;21.10;99.90;;;;;;8405597;28;20373;-71
2023/09/25 16:39:16;;;;;;;;;;;21.00;99.90;;;;;;8401384;28;19926;-71
2023/09/25 16:43:18;;;;;;;;;;;21.00;99.90;;;;;;8387922;28;19931;-71
2023/09/25 16:47:20;;;;;;;;;;;20.90;99.90;;;;;;8375497;28;20325;-71
2023/09/25 16:51:23;;;;;;;;;;;20.90;99.90;;;;;;8395001;28;19978;-71
2023/09/25 16:55:25;;;;;;;;;;;20.90;99.90;;;;;;8392119;28;21359;-71
2023/09/25 17:04:30;;;;;;;;;;;20.70;99.90;;;;;;8395607;28;20344;-71
2023/09/25 17:08:32;;;;;;;;;;;20.70;99.90;;;;;;8402492;28;19978;-71
2023/09/25 17:12:34;;;;;;;;;;;20.70;99.90;;;;;;8376599;28;19928;-71
2023/09/25 17:16:36;;;;;;;;;;;20.70;99.90;;;;;;8393923;28;19924;-71
2023/09/25 17:20:38;;;;;;;;;;;20.60;99.90;;;;;;8391972;28;20102;-71
2023/09/25 17:24:40;;;;;;;;;;;20.50;99.90;;;;;;8391954;28;19925;-71
2023/09/25 17:28:42;;;;;;;;;;;20.50;99.90;;;;;;8383320;28;19977;-71
2023/09/25 17:32:43;;;;;;;;;;;20.50;99.90;;;;;;8389819;28;19939;-71
2023/09/25 17:36:45;;;;;;;;;;;20.50;99.90;;;;;;8396957;28;19928;-71
2023/09/25 17:40:47;;;;;;;;;;;20.40;99.90;;;;;;8398536;28;19928;-71
2023/09/25 17:44:49;;;;;;;;;;;20.40;99.90;;;;;;8374701;28;19936;-71
2023/09/25 17:48:51;;;;;;;;;;;20.30;99.90;;;;;;8380016;28;19981;-71
2023/09/25 17:52:53;;;;;;;;;;;20.30;99.90;;;;;;8390452;28;19924;-71
2023/09/25 17:56:54;;;;;;;;;;;20.30;99.90;;;;;;8391162;28;20485;-71
2023/09/25 18:00:56;;;;;;;;;;;20.30;99.90;;;;;;8375307;28;19975;-71
2023/09/25 18:04:58;;;;;;;;;;;20.20;99.90;;;;;;8394295;28;20414;-71
2023/09/25 18:09:00;;;;;;;;;;;20.20;99.90;;;;;;8393752;28;19994;-71
2023/09/25 18:13:02;;;;;;;;;;;20.20;99.90;;;;;;8397001;28;19929;-71
2023/09/25 18:17:04;;;;;;;;;;;20.10;99.90;;;;;;8393994;28;19939;-71
2023/09/25 18:21:06;;;;;;;;;;;20.10;99.90;;;;;;8396085;28;19956;-71
2023/09/25 18:25:07;;;;;;;;;;;20.00;99.90;;;;;;8395534;28;19928;-71
2023/09/25 18:29:09;;;;;;;;;;;19.90;99.90;;;;;;8393592;28;19931;-71
2023/09/25 18:33:11;;;;;;;;;;;19.90;99.90;;;;;;8396138;28;19924;-71
2023/09/25 18:37:14;;;;;;;;;;;19.80;99.90;;;;;;8377880;28;20294;-71
2023/09/25 18:41:15;;;;;;;;;;;19.80;99.90;;;;;;8392808;28;19924;-71
2023/09/25 18:45:17;;;;;;;;;;;19.80;99.90;;;;;;8390862;28;19931;-71
2023/09/25 18:49:19;;;;;;;;;;;19.70;99.90;;;;;;8391816;28;19932;-71
2023/09/25 18:53:22;;;;;;;;;;;19.70;99.90;;;;;;8391463;28;20307;-71
2023/09/25 18:57:23;;;;;;;;;;;19.70;99.90;;;;;;8395316;28;19933;-71
2023/09/25 19:01:25;;;;;;;;;;;19.60;99.90;;;;;;8376396;28;20211;-71
2023/09/25 19:05:27;;;;;;;;;;;19.60;99.90;;;;;;8394305;28;19928;-71
2023/09/25 19:09:29;;;;;;;;;;;19.60;99.90;;;;;;8389057;28;20390;-71
2023/09/25 19:13:30;;;;;;;;;;;19.60;99.90;;;;;;8379747;28;19924;-71
2023/09/25 19:17:43;;;;;;;;;;;19.60;99.90;;;;;;8378954;28;19980;-71
2023/09/25 19:21:44;;;;;;;;;;;19.60;99.90;;;;;;8389818;28;20015;-71
2023/09/25 19:25:46;;;;;;;;;;;19.50;99.90;;;;;;8395214;28;19982;-71
2023/09/25 19:29:48;;;;;;;;;;;19.50;99.90;;;;;;8396979;28;19935;-71
2023/09/25 19:33:52;;;;;;;;;;;19.50;99.90;;;;;;8398325;28;19939;-71
2023/09/25 19:37:58;;;;;;;;;;;19.50;99.90;;;;;;8383218;28;19964;-72
2023/09/25 19:42:00;;;;;;;;;;;19.50;99.90;;;;;;8386254;28;19928;-71
2023/09/25 19:46:02;;;;;;;;;;;19.50;99.90;;;;;;8389341;28;19937;-71
2023/09/25 19:50:04;;;;;;;;;;;19.40;99.90;;;;;;8387047;28;19946;-71
2023/09/25 19:54:06;;;;;;;;;;;19.40;99.90;;;;;;8400715;28;19932;-71
2023/09/25 19:58:08;;;;;;;;;;;19.40;99.90;;;;;;8397003;28;19925;-71
2023/09/25 20:02:10;;;;;;;;;;;19.40;99.90;;;;;;8395665;28;20611;-71
2023/09/25 20:06:12;;;;;;;;;;;19.40;99.90;;;;;;8395794;28;19928;-71
2023/09/25 20:10:13;;;;;;;;;;;19.30;99.90;;;;;;8382796;28;19924;-71
2023/09/25 20:14:15;;;;;;;;;;;19.30;99.90;;;;;;8415284;28;19928;-71
2023/09/25 20:18:17;;;;;;;;;;;19.20;99.90;;;;;;8399770;28;20391;-71
2023/09/25 20:22:20;;;;;;;;;;;19.10;99.90;;;;;;8388815;28;20239;-71
2023/09/25 20:26:22;;;;;;;;;;;19.00;99.90;;;;;;8395729;28;19924;-71
2023/09/25 20:30:24;;;;;;;;;;;18.90;99.90;;;;;;8396662;28;19931;-71
2023/09/25 20:34:26;;;;;;;;;;;18.90;99.90;;;;;;8392261;28;19995;-71
2023/09/25 20:38:27;;;;;;;;;;;18.90;99.90;;;;;;8394892;28;19935;-71
2023/09/25 20:42:29;;;;;;;;;;;18.90;99.90;;;;;;8379816;28;19936;-71
2023/09/25 20:46:31;;;;;;;;;;;18.90;99.90;;;;;;8377690;28;19985;-71
2023/09/25 20:50:32;;;;;;;;;;;18.90;99.90;;;;;;8379770;28;20375;-71
2023/09/25 20:54:34;;;;;;;;;;;18.80;99.90;;;;;;8397843;28;19925;-71
2023/09/25 20:58:36;;;;;;;;;;;18.80;99.90;;;;;;8377937;28;19962;-71
2023/09/25 21:02:37;;;;;;;;;;;18.80;99.90;;;;;;8402954;28;19961;-71
2023/09/25 21:06:39;;;;;;;;;;;18.70;99.90;;;;;;8389115;28;19932;-71
2023/09/25 21:10:41;;;;;;;;;;;18.70;99.90;;;;;;8387772;28;20393;-71
2023/09/25 21:14:43;;;;;;;;;;;18.70;99.90;;;;;;8406719;28;19924;-71
2023/09/25 21:18:44;;;;;;;;;;;18.60;99.90;;;;;;8413512;28;19924;-71
2023/09/25 21:22:46;;;;;;;;;;;18.50;99.90;;;;;;8408447;28;19968;-71
2023/09/25 21:26:49;;;;;;;;;;;18.50;99.90;;;;;;8404094;28;19999;-71
2023/09/25 21:30:50;;;;;;;;;;;18.40;99.90;;;;;;8401229;28;19977;-71
2023/09/25 21:34:52;;;;;;;;;;;18.40;99.90;;;;;;8393810;28;19924;-71
2023/09/25 21:38:54;;;;;;;;;;;18.40;99.90;;;;;;8395955;28;19931;-71
2023/09/25 21:42:55;;;;;;;;;;;18.40;99.90;;;;;;8406367;28;19940;-71
2023/09/25 21:46:57;;;;;;;;;;;18.30;99.90;;;;;;8402133;28;19932;-71
2023/09/25 21:51:00;;;;;;;;;;;18.30;99.90;;;;;;8408479;28;20006;-71
2023/09/25 21:55:02;;;;;;;;;;;18.20;99.90;;;;;;8405964;28;20409;-71
2023/09/25 22:09:45;;;;;;;;;;;18.10;99.90;;;;;;8402662;28;19919;-71
2023/09/25 22:13:47;;;;;;;;;;;18.00;99.90;;;;;;8378561;28;20015;-71
2023/09/25 22:17:51;;;;;;;;;;;18.00;99.90;;;;;;8406996;28;20222;-71
2023/09/25 22:21:53;;;;;;;;;;;17.90;99.90;;;;;;8406354;28;20451;-71
2023/09/25 22:25:55;;;;;;;;;;;17.90;99.90;;;;;;8390507;28;20397;-71
2023/09/25 22:29:57;;;;;;;;;;;17.80;99.90;;;;;;8382883;28;20287;-71
2023/09/25 22:33:58;;;;;;;;;;;17.80;99.90;;;;;;8395407;28;19924;-71
2023/09/25 22:38:08;;;;;;;;;;;17.70;99.90;;;;;;8383135;28;19928;-71
2023/09/25 22:42:09;;;;;;;;;;;17.60;99.90;;;;;;8416080;28;20337;-71
2023/09/25 22:46:11;;;;;;;;;;;17.60;99.90;;;;;;8399634;28;19933;-71
2023/09/25 22:50:13;;;;;;;;;;;17.60;99.90;;;;;;8385310;28;19924;-71
2023/09/25 22:54:14;;;;;;;;;;;17.50;99.90;;;;;;8386555;28;20559;-71
2023/09/25 22:58:16;;;;;;;;;;;17.40;99.90;;;;;;8400991;28;19932;-71
2023/09/25 23:02:18;;;;;;;;;;;17.40;99.90;;;;;;8411209;28;20333;-71
2023/09/25 23:06:20;;;;;;;;;;;17.30;99.90;;;;;;8393713;28;20427;-71
2023/09/25 23:10:22;;;;;;;;;;;17.30;99.90;;;;;;8410183;28;19978;-71
2023/09/25 23:14:25;;;;;;;;;;;17.30;99.90;;;;;;8405481;28;19955;-71
2023/09/25 23:18:27;;;;;;;;;;;17.20;99.90;;;;;;8407162;28;20066;-71
2023/09/25 23:22:29;;;;;;;;;;;17.20;99.90;;;;;;8403655;28;19932;-71
2023/09/25 23:26:31;;;;;;;;;;;17.10;99.90;;;;;;8417471;28;19985;-71
2023/09/25 23:30:33;;;;;;;;;;;17.10;99.90;;;;;;8408508;28;20391;-71
2023/09/25 23:34:34;;;;;;;;;;;17.10;99.90;;;;;;8392477;28;19985;-71
2023/09/25 23:38:36;;;;;;;;;;;17.00;99.90;;;;;;8408358;28;20327;-71
2023/09/25 23:42:38;;;;;;;;;;;17.00;99.90;;;;;;8412292;28;19924;-71
2023/09/25 23:46:40;;;;;;;;;;;16.90;99.90;;;;;;8404461;28;20023;-71
2023/09/25 23:50:42;;;;;;;;;;;16.90;99.90;;;;;;8407238;28;19928;-71
2023/09/25 23:54:44;;;;;;;;;;;16.80;99.90;;;;;;8414943;28;19929;-71
2023/09/25 23:58:45;;;;;;;;;;;16.80;99.90;;;;;;8402872;28;19931;-71
